Time;durP1;ratioP1;P1;durP2;ratioP2;P2;SDS_P1;SDS_P2;PMS_P1;PMS_P2;Temp;Humidity;BMP_temperature;BMP_pressure;BME280_temperature;BME280_humidity;BME280_pressure;Samples;Min_cycle;Max_cycle;Signal;HPM_P1;HPM_P2
2022/03/22 04:57:59;;;;;;;16.70;4.15;;;22.90;75.30;;;;;;6175314;23;20074;-75
2022/03/22 05:00:26;;;;;;;12.93;4.07;;;22.90;74.60;;;;;;6174652;23;20028;-75
2022/03/22 05:02:52;;;;;;;15.95;3.67;;;22.90;74.80;;;;;;6175887;23;20084;-74
2022/03/22 05:06:25;;;;;;;15.15;3.67;;;22.90;74.80;;;;;;6174519;23;20013;-74
2022/03/22 05:08:05;;;;;;;11.38;2.90;;;22.90;74.90;;;;;;6176039;22;20002;-74
2022/03/22 05:10:34;;;;;;;13.73;3.45;;;22.90;74.90;;;;;;6175006;23;20001;-74
2022/03/22 05:13:00;;;;;;;19.42;4.75;;;22.90;74.90;;;;;;6175207;23;20012;-74
2022/03/22 05:15:27;;;;;;;10.52;3.65;;;22.90;75.00;;;;;;6176286;23;20001;-74
2022/03/22 05:17:56;;;;;;;17.45;4.50;;;22.90;75.00;;;;;;6174428;23;20028;-74
2022/03/22 05:20:22;;;;;;;11.02;3.80;;;22.80;75.10;;;;;;6175727;23;20049;-74
2022/03/22 05:22:49;;;;;;;11.90;3.83;;;22.80;75.20;;;;;;6174850;23;20025;-75
2022/03/22 05:25:16;;;;;;;11.07;3.30;;;22.80;75.20;;;;;;6175408;23;20014;-74
2022/03/22 05:27:42;;;;;;;15.10;3.58;;;22.80;75.20;;;;;;6174785;23;20027;-75
2022/03/22 05:30:09;;;;;;;20.90;5.35;;;22.80;75.20;;;;;;6175419;23;20468;-75
2022/03/22 05:32:36;;;;;;;18.83;4.85;;;22.80;75.30;;;;;;6175759;23;20001;-75
2022/03/22 05:35:03;;;;;;;14.10;4.00;;;22.80;75.50;;;;;;6174375;23;20043;-75
2022/03/22 05:37:29;;;;;;;15.25;4.30;;;22.80;75.80;;;;;;6175738;23;20001;-74
2022/03/22 05:39:56;;;;;;;16.50;4.60;;;22.80;75.80;;;;;;6174188;23;20001;-74
2022/03/22 05:42:22;;;;;;;17.50;4.00;;;22.80;76.00;;;;;;6176994;23;20005;-74
2022/03/22 05:44:49;;;;;;;18.55;4.53;;;22.80;76.00;;;;;;6175720;23;20400;-75
2022/03/22 05:47:16;;;;;;;16.75;4.95;;;22.80;76.10;;;;;;6176708;23;19997;-74
2022/03/22 05:49:42;;;;;;;14.50;4.85;;;22.80;76.80;;;;;;6176281;23;20005;-75
2022/03/22 05:52:08;;;;;;;14.30;3.90;;;22.90;76.20;;;;;;6175437;23;20012;-74
2022/03/22 05:54:35;;;;;;;18.73;4.10;;;22.80;76.20;;;;;;6176661;23;20358;-74
2022/03/22 05:57:01;;;;;;;16.58;5.03;;;22.90;76.30;;;;;;6175650;23;20628;-75
2022/03/22 05:59:28;;;;;;;14.60;4.03;;;22.90;76.30;;;;;;6176867;23;20278;-75
2022/03/22 06:01:54;;;;;;;17.33;5.38;;;22.90;76.30;;;;;;6175616;23;19997;-74
2022/03/22 06:04:21;;;;;;;14.43;3.95;;;22.90;76.40;;;;;;6176992;23;20005;-74
2022/03/22 06:06:47;;;;;;;11.40;4.13;;;23.00;76.40;;;;;;6176016;23;20001;-74
2022/03/22 06:09:15;;;;;;;20.83;4.90;;;22.90;76.40;;;;;;6175733;23;20009;-74
2022/03/22 06:11:42;;;;;;;14.63;4.60;;;23.00;76.40;;;;;;6176990;23;20012;-74
2022/03/22 06:14:09;;;;;;;11.05;3.90;;;23.00;76.30;;;;;;6175417;23;20005;-73
2022/03/22 06:16:36;;;;;;;14.30;4.63;;;23.00;76.00;;;;;;6176550;23;19997;-74
2022/03/22 06:19:02;;;;;;;21.67;4.63;;;23.10;76.00;;;;;;6175412;23;20512;-74
2022/03/22 06:21:29;;;;;;;16.83;4.60;;;23.10;76.00;;;;;;6176548;23;20055;-74
2022/03/22 06:23:55;;;;;;;13.98;3.75;;;23.10;75.90;;;;;;6175912;23;20070;-74
2022/03/22 06:26:22;;;;;;;15.25;5.05;;;23.10;75.80;;;;;;6176128;23;20001;-74
2022/03/22 06:28:48;;;;;;;14.52;4.18;;;23.10;75.80;;;;;;6176560;23;20044;-74
2022/03/22 06:31:15;;;;;;;15.18;4.10;;;23.10;75.70;;;;;;6175668;23;19997;-74
2022/03/22 06:33:41;;;;;;;14.43;4.88;;;23.10;75.70;;;;;;6176417;23;20009;-74
2022/03/22 06:36:08;;;;;;;15.30;4.88;;;23.20;75.80;;;;;;6175332;23;20009;-74
2022/03/22 06:38:39;;;;;;;25.83;5.82;;;23.20;75.90;;;;;;6176403;23;20115;-74
2022/03/22 06:41:45;;;;;;;18.48;5.65;;;23.20;75.80;;;;;;6176023;23;20012;-74
2022/03/22 06:44:11;;;;;;;26.75;6.10;;;23.20;75.50;;;;;;6175551;22;20499;-74
2022/03/22 06:46:38;;;;;;;18.55;4.32;;;23.30;75.50;;;;;;6176050;23;20029;-74
2022/03/22 06:49:05;;;;;;;14.10;4.15;;;23.30;75.50;;;;;;6175417;23;20063;-74
2022/03/22 06:51:32;;;;;;;17.58;4.82;;;23.30;75.50;;;;;;6176415;23;20053;-74
2022/03/22 06:53:58;;;;;;;15.35;3.97;;;23.30;75.30;;;;;;6175340;23;19997;-74
2022/03/22 06:56:25;;;;;;;17.00;4.78;;;23.30;75.30;;;;;;6176447;23;20011;-74
2022/03/22 06:58:51;;;;;;;16.75;4.68;;;23.30;75.20;;;;;;6176512;23;20001;-74
2022/03/22 07:01:18;;;;;;;13.73;4.03;;;23.30;75.20;;;;;;6175321;23;19997;-72
2022/03/22 07:03:44;;;;;;;15.63;4.15;;;23.40;75.20;;;;;;6176539;23;20463;-73
2022/03/22 07:06:10;;;;;;;16.60;3.95;;;23.40;74.90;;;;;;6172147;23;20084;-72
2022/03/22 07:08:37;;;;;;;21.55;4.53;;;23.40;74.60;;;;;;6175394;23;20012;-74
2022/03/22 07:13:49;;;;;;;21.40;8.75;;;23.40;74.30;;;;;;6170725;23;20019;-73
2022/03/22 07:16:16;;;;;;;17.55;6.70;;;23.40;74.20;;;;;;6170639;23;20446;-73
2022/03/22 07:18:42;;;;;;;11.95;4.63;;;23.50;74.10;;;;;;6171316;23;20428;-74
2022/03/22 07:21:09;;;;;;;15.07;4.55;;;23.50;74.00;;;;;;6174908;23;20451;-73
2022/03/22 07:23:36;;;;;;;20.23;5.32;;;23.50;74.00;;;;;;6174682;23;20112;-73
2022/03/22 07:26:03;;;;;;;18.92;5.18;;;23.50;74.00;;;;;;6172351;23;20447;-73
2022/03/22 07:28:29;;;;;;;15.80;5.00;;;23.50;73.90;;;;;;6174269;23;20009;-73
2022/03/22 07:30:56;;;;;;;13.70;3.92;;;23.60;74.00;;;;;;6173838;23;20001;-73
2022/03/22 07:33:22;;;;;;;12.25;2.88;;;23.60;73.80;;;;;;6175036;23;20039;-73
2022/03/22 07:35:49;;;;;;;10.40;2.95;;;23.50;73.70;;;;;;6171272;23;20514;-73
2022/03/22 07:38:16;;;;;;;12.80;3.60;;;23.60;73.70;;;;;;6174066;23;20488;-73
2022/03/22 07:40:42;;;;;;;14.30;3.35;;;23.60;73.70;;;;;;6171824;23;20027;-74
2022/03/22 07:43:09;;;;;;;14.25;4.97;;;23.70;73.60;;;;;;6169973;23;20058;-73
2022/03/22 07:45:37;;;;;;;23.38;7.93;;;23.70;73.40;;;;;;6172485;23;20392;-72
2022/03/22 07:48:05;;;;;;;25.73;14.77;;;23.70;73.30;;;;;;6173330;23;20302;-73
2022/03/22 07:53:16;;;;;;;14.52;7.15;;;23.70;73.00;;;;;;6171578;23;20455;-72
2022/03/22 07:55:43;;;;;;;16.73;7.63;;;23.80;72.90;;;;;;6174542;23;20055;-72
2022/03/22 07:58:11;;;;;;;15.88;5.47;;;23.80;72.80;;;;;;6173455;23;20008;-72
2022/03/22 08:00:40;;;;;;;11.73;4.68;;;23.80;72.80;;;;;;6175205;23;20047;-73
2022/03/22 08:03:10;;;;;;;15.57;3.97;;;23.90;72.80;;;;;;6172504;23;20001;-72
2022/03/22 08:05:37;;;;;;;12.57;3.95;;;23.90;72.80;;;;;;6173796;23;20009;-72
2022/03/22 08:08:05;;;;;;;14.02;4.88;;;23.90;72.70;;;;;;6169548;23;20029;-73
2022/03/22 08:10:32;;;;;;;21.17;5.20;;;24.00;72.60;;;;;;6173665;23;20029;-72
2022/03/22 08:12:59;;;;;;;14.65;4.80;;;24.00;72.60;;;;;;6171548;23;20443;-71
2022/03/22 08:15:27;;;;;;;19.20;5.68;;;24.00;72.50;;;;;;6171441;23;20373;-71
2022/03/22 08:17:53;;;;;;;20.40;4.72;;;24.10;72.50;;;;;;6174693;23;20013;-74
2022/03/22 08:20:21;;;;;;;16.25;4.97;;;24.10;72.40;;;;;;6174012;23;20005;-73
2022/03/22 08:22:50;;;;;;;18.95;6.25;;;24.10;72.20;;;;;;6173942;23;20080;-73
2022/03/22 08:25:26;;;;;;;12.45;5.32;;;24.10;72.10;;;;;;6172383;23;20046;-72
2022/03/22 08:27:54;;;;;;;14.68;4.70;;;24.20;72.10;;;;;;6172983;23;20114;-72
2022/03/22 08:30:21;;;;;;;15.00;5.43;;;24.20;72.00;;;;;;6175354;23;20005;-74
2022/03/22 08:32:56;;;;;;;12.68;4.47;;;24.20;71.80;;;;;;6174199;23;20016;-72
2022/03/22 08:35:26;;;;;;;16.73;3.85;;;24.30;71.70;;;;;;6174544;23;20017;-72
2022/03/22 08:37:54;;;;;;;13.98;4.32;;;24.30;71.60;;;;;;6174979;23;20001;-72
2022/03/22 08:40:22;;;;;;;15.77;3.78;;;24.30;71.50;;;;;;6174935;23;20000;-72
2022/03/22 08:42:52;;;;;;;20.80;4.80;;;24.40;71.50;;;;;;6173423;23;20371;-72
2022/03/22 08:45:22;;;;;;;11.35;3.45;;;24.40;71.50;;;;;;6172810;23;20043;-72
2022/03/22 08:47:50;;;;;;;21.67;5.00;;;24.40;71.20;;;;;;6175412;23;20073;-74
2022/03/22 08:50:19;;;;;;;27.42;14.27;;;24.50;71.10;;;;;;6174106;23;20026;-72
2022/03/22 08:52:47;;;;;;;19.02;9.32;;;24.50;70.80;;;;;;6173870;23;20388;-72
2022/03/22 08:55:17;;;;;;;20.23;8.13;;;24.50;70.60;;;;;;6168005;23;20060;-72
2022/03/22 08:57:46;;;;;;;12.18;5.30;;;24.60;70.50;;;;;;6172637;23;20005;-72
2022/03/22 09:00:14;;;;;;;12.90;5.70;;;24.60;70.40;;;;;;6171499;23;20008;-72
2022/03/22 09:02:42;;;;;;;13.25;4.05;;;24.60;70.20;;;;;;6168999;23;20008;-72
2022/03/22 09:07:58;;;;;;;16.00;3.67;;;24.70;70.10;;;;;;6173967;23;20047;-72
2022/03/22 09:10:29;;;;;;;15.27;3.42;;;24.80;70.20;;;;;;6174017;23;19997;-72
2022/03/22 09:12:57;;;;;;;12.55;4.13;;;24.80;70.00;;;;;;6174570;23;20005;-72
2022/03/22 09:15:26;;;;;;;8.75;3.65;;;24.90;70.10;;;;;;6169669;23;20003;-72
2022/03/22 09:17:53;;;;;;;11.45;3.55;;;24.90;70.00;;;;;;6175047;23;20046;-72
2022/03/22 09:20:20;;;;;;;10.85;2.90;;;25.00;69.90;;;;;;6173826;23;19997;-72
2022/03/22 09:22:49;;;;;;;14.98;3.60;;;25.10;69.70;;;;;;6175874;23;20001;-72
2022/03/22 09:25:16;;;;;;;7.85;2.90;;;25.10;69.50;;;;;;6172300;23;20419;-72
2022/03/22 09:27:43;;;;;;;11.82;3.20;;;25.20;69.50;;;;;;6173479;23;19997;-72
2022/03/22 09:30:11;;;;;;;10.48;3.50;;;25.30;69.30;;;;;;6175740;23;20005;-72
2022/03/22 09:32:40;;;;;;;13.32;3.28;;;25.30;69.10;;;;;;6175059;23;20001;-72
2022/03/22 09:35:10;;;;;;;15.65;3.65;;;25.30;68.90;;;;;;6172500;23;20021;-72
2022/03/22 09:37:41;;;;;;;15.65;3.28;;;25.40;68.70;;;;;;6172857;23;19997;-73
2022/03/22 09:40:09;;;;;;;17.20;6.57;;;25.30;68.50;;;;;;6170917;23;20725;-72
2022/03/22 09:42:38;;;;;;;14.00;4.97;;;25.30;68.80;;;;;;6174031;23;20420;-72
2022/03/22 09:45:09;;;;;;;13.63;4.68;;;25.30;68.90;;;;;;6170994;23;20020;-72
2022/03/22 09:47:37;;;;;;;17.98;4.60;;;25.30;69.10;;;;;;6173262;23;19997;-72
2022/03/22 09:50:08;;;;;;;10.02;3.45;;;25.30;69.20;;;;;;6275548;22;20011;-73
2022/03/22 09:52:36;;;;;;;20.20;5.30;;;25.30;69.00;;;;;;6175600;23;20009;-72
2022/03/22 09:55:04;;;;;;;37.13;6.00;;;25.30;68.90;;;;;;6174553;23;20055;-72
2022/03/22 09:57:31;;;;;;;35.03;5.07;;;25.30;68.80;;;;;;6175046;23;20005;-71
2022/03/22 09:59:57;;;;;;;17.58;3.70;;;25.20;69.00;;;;;;6171833;23;20001;-72
2022/03/22 10:02:32;;;;;;;19.40;5.82;;;25.20;69.30;;;;;;6174381;23;20428;-72
2022/03/22 10:05:00;;;;;;;15.10;4.32;;;25.30;69.50;;;;;;6174571;23;20158;-72
2022/03/22 10:07:29;;;;;;;26.27;5.07;;;25.30;69.50;;;;;;6277143;22;20006;-71
2022/03/22 10:10:02;;;;;;;15.43;4.28;;;25.30;69.50;;;;;;6170127;23;19997;-72
2022/03/22 10:12:36;;;;;;;20.48;3.70;;;25.40;69.30;;;;;;6174237;23;20046;-72
2022/03/22 10:15:16;;;;;;;18.63;3.85;;;25.40;69.10;;;;;;6175063;23;20076;-71
2022/03/22 10:17:44;;;;;;;13.55;3.60;;;25.40;68.80;;;;;;6175950;23;20005;-71
2022/03/22 10:20:22;;;;;;;16.58;4.22;;;25.40;68.60;;;;;;6171625;23;20004;-72
2022/03/22 10:22:59;;;;;;;14.52;3.45;;;25.50;68.80;;;;;;6175414;23;20002;-71
2022/03/22 10:25:26;;;;;;;14.45;3.90;;;25.50;68.70;;;;;;6174589;23;20055;-72
2022/03/22 10:27:57;;;;;;;12.68;5.35;;;25.60;68.50;;;;;;6175678;23;20029;-72
2022/03/22 10:30:24;;;;;;;18.35;9.68;;;25.60;68.10;;;;;;6171972;23;20009;-71
2022/03/22 10:32:51;;;;;;;12.68;5.25;;;25.70;67.70;;;;;;6172901;23;20001;-71
2022/03/22 10:35:24;;;;;;;14.35;4.03;;;25.80;67.30;;;;;;6175482;23;20013;-71
2022/03/22 10:37:52;;;;;;;17.45;4.60;;;25.80;66.90;;;;;;6171904;23;20005;-71
2022/03/22 10:40:40;;;;;;;11.48;3.22;;;25.90;66.80;;;;;;6173423;23;20004;-71
2022/03/22 10:43:16;;;;;;;9.15;3.35;;;26.00;66.50;;;;;;6174880;23;20005;-71
2022/03/22 10:45:44;;;;;;;11.27;3.30;;;26.00;66.20;;;;;;6173950;23;20009;-71
2022/03/22 10:48:19;;;;;;;10.23;3.67;;;26.10;65.90;;;;;;6175936;23;20447;-71
2022/03/22 10:50:50;;;;;;;12.10;4.13;;;26.20;65.60;;;;;;6170095;23;20001;-72
2022/03/22 10:55:37;;;;;;;15.10;4.53;;;26.30;64.70;;;;;;5025456;28;20480;-70
2022/03/22 10:58:04;;;;;;;17.63;8.20;;;26.40;65.50;;;;;;5023113;28;20029;-70
2022/03/22 11:00:30;;;;;;;17.77;11.85;;;26.50;65.10;;;;;;5018558;28;20108;-70
2022/03/22 11:02:57;;;;;;;19.90;7.43;;;26.60;64.80;;;;;;5023085;28;20040;-70
2022/03/22 11:05:26;;;;;;;15.65;4.80;;;26.60;64.60;;;;;;5021993;28;20406;-70
2022/03/22 11:07:53;;;;;;;14.90;5.18;;;26.70;64.40;;;;;;5020685;28;20029;-70
2022/03/22 11:10:30;;;;;;;13.18;3.97;;;26.80;64.10;;;;;;5022812;28;20067;-70
2022/03/22 11:12:58;;;;;;;9.93;3.28;;;26.90;64.10;;;;;;5024035;28;20018;-70
2022/03/22 11:15:31;;;;;;;11.13;3.72;;;26.90;63.80;;;;;;5023011;28;20037;-70
2022/03/22 11:17:58;;;;;;;16.33;3.95;;;27.00;63.40;;;;;;5022029;28;20132;-70
2022/03/22 11:20:27;;;;;;;12.68;4.40;;;27.00;63.00;;;;;;5020707;28;20030;-70
2022/03/22 11:22:56;;;;;;;12.27;3.83;;;27.10;63.00;;;;;;5023455;28;20029;-70
2022/03/22 11:25:31;;;;;;;10.38;3.28;;;27.10;62.80;;;;;;5023951;28;20504;-70
2022/03/22 11:28:04;;;;;;;;;;;27.20;62.80;;;;;;5022912;28;20025;-70
2022/03/22 11:30:32;;;;;;;14.35;3.75;;;27.20;62.70;;;;;;5018997;28;20327;-70
2022/03/22 11:35:46;;;;;;;;;;;27.40;62.10;;;;;;5021831;28;20125;-70
2022/03/22 11:38:13;;;;;;;12.63;3.75;;;27.40;61.70;;;;;;5015448;28;20000;-70
2022/03/22 11:43:42;;;;;;;13.60;3.72;;;27.60;61.70;;;;;;5016796;28;20060;-70
2022/03/22 11:46:09;;;;;;;14.85;8.90;;;27.60;61.40;;;;;;5023421;28;20029;-70
2022/03/22 11:48:39;;;;;;;9.75;5.43;;;27.60;61.20;;;;;;5020532;28;20780;-70
2022/03/22 11:51:07;;;;;;;10.80;4.57;;;27.60;61.10;;;;;;5021381;28;20592;-70
2022/03/22 11:53:45;;;;;;;9.95;4.05;;;27.70;61.10;;;;;;5021130;28;20100;-70
2022/03/22 11:56:12;;;;;;;12.77;4.50;;;27.70;61.10;;;;;;5028954;28;20421;-70
2022/03/22 11:58:50;;;;;;;9.45;3.45;;;27.80;61.00;;;;;;5024396;28;20036;-70
2022/03/22 12:01:17;;;;;;;11.98;3.88;;;27.90;60.80;;;;;;5021460;28;20013;-69
2022/03/22 12:03:53;;;;;;;15.60;3.38;;;28.00;60.40;;;;;;5024038;28;20017;-70
2022/03/22 12:06:19;;;;;;;12.88;3.45;;;28.00;60.00;;;;;;5011780;28;20026;-70
2022/03/22 12:08:46;;;;;;;16.70;3.10;;;28.10;59.60;;;;;;5009847;28;20014;-70
2022/03/22 12:11:16;;;;;;;8.90;5.55;;;28.10;59.30;;;;;;5011186;28;20435;-70
2022/03/22 12:13:51;;;;;;;10.90;6.63;;;28.20;59.30;;;;;;5011729;28;20092;-70
2022/03/22 12:16:25;;;;;;;10.90;4.25;;;28.20;59.40;;;;;;5004265;28;20057;-70
2022/03/22 12:18:51;;;;;;;13.82;3.67;;;28.20;59.30;;;;;;5009050;28;20856;-70
2022/03/22 12:21:58;;;;;;;12.23;3.25;;;28.30;59.20;;;;;;5011054;28;20369;-70
2022/03/22 12:25:04;;;;;;;23.80;3.92;;;28.30;59.00;;;;;;5009214;28;20041;-69
2022/03/22 12:28:16;;;;;;;32.58;3.90;;;28.30;59.00;;;;;;5008691;28;20030;-71
2022/03/22 12:31:22;;;;;;;18.52;4.32;;;28.40;59.10;;;;;;5009205;28;20377;-70
2022/03/22 12:34:32;;;;;;;16.77;3.40;;;28.50;59.10;;;;;;5011124;28;20034;-70
2022/03/22 12:37:38;;;;;;;14.73;3.28;;;28.60;58.90;;;;;;5008949;28;20485;-70
2022/03/22 12:40:44;;;;;;;9.57;3.10;;;28.60;58.70;;;;;;5008494;28;20097;-70
2022/03/22 12:43:51;;;;;;;12.35;3.20;;;28.70;58.70;;;;;;5011000;28;20104;-70
2022/03/22 12:46:57;;;;;;;8.35;3.00;;;28.70;58.60;;;;;;5009824;28;20461;-70
2022/03/22 12:50:03;;;;;;;10.07;3.35;;;28.80;58.50;;;;;;5009089;28;20033;-71
2022/03/22 12:53:09;;;;;;;11.18;3.70;;;28.80;58.30;;;;;;5008533;28;20634;-70
2022/03/22 12:56:15;;;;;;;13.05;3.33;;;28.80;58.20;;;;;;5010673;28;20034;-71
2022/03/22 12:59:21;;;;;;;14.27;3.92;;;28.80;58.80;;;;;;5009579;28;20020;-70
2022/03/22 13:02:27;;;;;;;57.45;7.72;;;28.80;58.30;;;;;;5006641;28;20025;-70
2022/03/22 13:05:33;;;;;;;14.35;4.38;;;28.80;58.10;;;;;;5008943;28;20025;-70
2022/03/22 13:12:09;;;;;;;10.57;3.45;;;28.70;58.10;;;;;;5008862;28;20479;-70
2022/03/22 13:15:01;;;;;;;12.63;4.65;;;28.70;58.10;;;;;;5005791;28;20033;-70
2022/03/22 13:18:07;;;;;;;10.48;3.75;;;28.70;57.90;;;;;;5009428;28;20053;-71
2022/03/22 13:21:13;;;;;;;11.68;3.45;;;28.70;58.00;;;;;;5008549;28;20511;-70
2022/03/22 13:24:30;;;;;;;16.58;5.10;;;28.60;58.10;;;;;;5007643;28;20101;-70
2022/03/22 13:27:37;;;;;;;16.83;4.53;;;28.70;58.20;;;;;;5007378;28;20014;-71
2022/03/22 13:30:44;;;;;;;10.82;3.80;;;28.70;58.00;;;;;;5009025;28;20042;-71
2022/03/22 13:33:21;;;;;;;20.40;4.57;;;28.70;58.00;;;;;;5007520;28;20026;-71
2022/03/22 13:35:59;;;;;;;14.75;4.50;;;28.60;57.80;;;;;;5010495;28;20763;-71
2022/03/22 13:38:27;;;;;;;13.63;5.10;;;28.60;58.00;;;;;;5005675;28;20088;-71
2022/03/22 13:40:57;;;;;;;12.75;3.50;;;28.60;58.00;;;;;;5005759;28;20018;-70
2022/03/22 13:43:25;;;;;;;14.23;3.90;;;28.60;58.10;;;;;;5007713;28;20025;-71
2022/03/22 13:45:58;;;;;;;12.25;3.50;;;28.60;58.20;;;;;;5007315;28;20386;-70
2022/03/22 13:48:25;;;;;;;16.30;4.25;;;28.60;58.20;;;;;;5006705;28;20085;-71
2022/03/22 13:50:53;;;;;;;9.40;3.42;;;28.60;58.10;;;;;;5009163;28;20105;-71
2022/03/22 13:53:24;;;;;;;15.43;4.10;;;28.60;58.10;;;;;;5007980;28;20029;-71
2022/03/22 13:56:07;;;;;;;12.52;3.50;;;28.60;58.10;;;;;;5007576;28;20009;-71
2022/03/22 13:58:45;;;;;;;15.80;4.03;;;28.60;58.10;;;;;;5005552;28;20649;-71
2022/03/22 14:01:13;;;;;;;15.18;3.72;;;28.50;58.20;;;;;;5007508;28;20033;-71
2022/03/22 14:03:43;;;;;;;13.18;4.20;;;28.40;58.20;;;;;;5008979;28;20026;-71
2022/03/22 14:06:10;;;;;;;14.43;3.72;;;28.40;58.30;;;;;;5006251;28;20060;-71
2022/03/22 14:08:39;;;;;;;12.88;4.50;;;28.40;58.40;;;;;;5009765;28;20020;-71
2022/03/22 14:11:07;;;;;;;17.48;3.63;;;28.40;58.50;;;;;;5006543;28;20069;-71
2022/03/22 14:13:33;;;;;;;12.30;4.05;;;28.30;58.50;;;;;;5005093;28;20400;-70
2022/03/22 14:16:00;;;;;;;24.90;4.20;;;28.30;58.50;;;;;;5005866;28;20441;-71
2022/03/22 14:18:27;;;;;;;24.67;5.63;;;28.20;58.90;;;;;;5006865;28;20018;-70
2022/03/22 14:20:54;;;;;;;37.30;15.90;;;28.20;59.50;;;;;;5007312;28;20022;-69
2022/03/22 14:23:22;;;;;;;21.33;9.00;;;28.20;59.50;;;;;;4996796;28;20057;-70
2022/03/22 14:25:48;;;;;;;24.42;8.45;;;28.20;59.40;;;;;;5007008;28;20017;-71
2022/03/22 14:28:15;;;;;;;66.97;24.90;;;28.20;59.40;;;;;;5007538;28;20048;-70
2022/03/22 14:30:41;;;;;;;179.32;54.97;;;28.10;59.50;;;;;;5004194;28;20148;-69
2022/03/22 14:33:11;;;;;;;101.32;32.70;;;28.10;59.70;;;;;;5004088;28;20021;-67
2022/03/22 14:35:47;;;;;;;50.28;15.43;;;28.10;59.90;;;;;;5001172;28;20042;-70
2022/03/22 14:38:17;;;;;;;35.88;11.80;;;28.00;59.90;;;;;;5007444;28;20068;-70
2022/03/22 14:40:44;;;;;;;28.25;7.57;;;28.00;59.90;;;;;;5003533;28;20025;-70
2022/03/22 14:43:13;;;;;;;22.00;6.75;;;28.00;59.80;;;;;;5005856;28;20025;-68
2022/03/22 14:45:47;;;;;;;17.45;5.57;;;28.00;59.70;;;;;;5005140;28;20022;-68
2022/03/22 14:48:21;;;;;;;17.33;4.97;;;28.00;59.70;;;;;;5006051;28;20108;-68
2022/03/22 14:50:50;;;;;;;16.67;4.53;;;28.00;59.50;;;;;;5002548;28;20022;-68
2022/03/22 14:58:48;;;;;;;21.50;4.65;;;28.00;59.00;;;;;;5003577;28;20072;-68
2022/03/22 15:01:15;;;;;;;16.80;4.95;;;27.90;58.90;;;;;;5004882;28;20041;-67
2022/03/22 15:03:42;;;;;;;13.20;6.22;;;27.90;59.00;;;;;;5003794;28;21440;-68
2022/03/22 15:06:10;;;;;;;20.55;5.57;;;27.90;59.10;;;;;;5006600;28;20026;-70
2022/03/22 15:08:39;;;;;;;20.73;5.10;;;27.90;59.30;;;;;;5005113;28;20033;-70
2022/03/22 15:11:06;;;;;;;17.13;4.00;;;27.80;59.20;;;;;;5004756;28;20029;-70
2022/03/22 15:13:33;;;;;;;18.17;4.15;;;27.70;59.10;;;;;;5000181;28;20037;-67
2022/03/22 15:16:02;;;;;;;12.93;4.43;;;27.70;59.20;;;;;;5004549;28;20010;-70
2022/03/22 15:18:29;;;;;;;19.75;4.82;;;27.70;59.30;;;;;;5005124;28;20044;-69
2022/03/22 15:20:55;;;;;;;15.98;4.88;;;27.60;59.40;;;;;;5003839;28;20014;-69
2022/03/22 15:23:22;;;;;;;20.23;4.00;;;27.60;59.50;;;;;;5007487;28;20524;-72
2022/03/22 15:25:50;;;;;;;12.88;3.45;;;27.50;59.60;;;;;;5005777;28;20096;-72
2022/03/22 15:28:19;;;;;;;18.75;4.28;;;27.50;59.80;;;;;;5001040;28;20017;-69
2022/03/22 15:30:48;;;;;;;18.58;3.67;;;27.40;59.90;;;;;;5001188;28;20025;-69
2022/03/22 15:33:15;;;;;;;16.75;4.15;;;27.40;60.00;;;;;;5003369;28;20018;-69
2022/03/22 15:35:44;;;;;;;12.07;4.07;;;27.40;60.10;;;;;;5005760;28;20112;-71
2022/03/22 15:38:12;;;;;;;20.50;4.63;;;27.40;60.20;;;;;;5001941;28;20030;-72
2022/03/22 15:40:39;;;;;;;14.73;4.20;;;27.30;60.30;;;;;;5005016;28;20018;-69
2022/03/22 15:43:09;;;;;;;13.90;3.50;;;27.30;60.40;;;;;;5008020;28;20413;-70
2022/03/22 15:45:36;;;;;;;15.25;3.67;;;27.20;60.40;;;;;;5005613;28;20034;-71
2022/03/22 15:48:04;;;;;;;9.88;3.35;;;27.20;60.50;;;;;;5011095;28;20037;-69
2022/03/22 15:50:33;;;;;;;16.65;4.60;;;27.20;60.60;;;;;;5006521;28;20048;-70
2022/03/22 15:53:08;;;;;;;11.55;4.03;;;27.20;60.70;;;;;;5008918;28;20045;-72
2022/03/22 15:55:36;;;;;;;14.45;4.28;;;27.20;60.70;;;;;;5006882;28;20065;-70
2022/03/22 15:58:06;;;;;;;15.20;3.88;;;27.10;60.70;;;;;;5006301;28;20037;-69
2022/03/22 16:00:33;;;;;;;20.15;10.35;;;27.10;60.80;;;;;;5003333;28;20025;-70
2022/03/22 16:03:03;;;;;;;19.58;9.93;;;27.10;60.90;;;;;;5003859;28;20496;-68
2022/03/22 16:05:29;;;;;;;20.40;8.65;;;27.10;61.00;;;;;;5005861;28;20022;-70
2022/03/22 16:07:56;;;;;;;18.17;6.32;;;27.00;61.00;;;;;;5007223;28;20061;-69
2022/03/22 16:10:24;;;;;;;12.98;4.63;;;27.00;61.00;;;;;;5006555;28;20025;-70
2022/03/22 16:12:50;;;;;;;13.32;5.47;;;27.00;61.20;;;;;;5007087;28;20469;-69
2022/03/22 16:15:17;;;;;;;16.88;6.53;;;26.90;61.20;;;;;;5005200;28;20068;-69
2022/03/22 16:17:44;;;;;;;22.20;6.90;;;26.90;61.30;;;;;;5005451;28;20099;-70
2022/03/22 16:20:16;;;;;;;18.20;5.93;;;26.90;61.40;;;;;;5004568;28;20037;-70
2022/03/22 16:22:43;;;;;;;16.05;7.50;;;26.80;61.40;;;;;;5007051;28;20142;-69
2022/03/22 16:25:12;;;;;;;13.70;6.22;;;26.80;61.60;;;;;;5007019;28;20018;-69
2022/03/22 16:27:44;;;;;;;14.45;6.63;;;26.70;61.60;;;;;;5008654;28;20075;-69
2022/03/22 16:30:16;;;;;;;15.07;6.80;;;26.70;61.70;;;;;;5003084;28;20080;-69
2022/03/22 16:38:15;;;;;;;20.98;7.03;;;26.60;62.00;;;;;;5003576;28;20040;-69
2022/03/22 16:40:44;;;;;;;18.40;6.05;;;26.60;62.10;;;;;;5003387;28;20033;-69
2022/03/22 16:43:14;;;;;;;16.38;6.38;;;26.50;62.10;;;;;;5004905;28;20061;-69
2022/03/22 16:45:41;;;;;;;26.67;7.65;;;26.50;62.20;;;;;;5006260;28;20034;-70
2022/03/22 16:48:11;;;;;;;38.53;15.00;;;26.40;62.20;;;;;;5004760;28;20022;-69
2022/03/22 16:50:43;;;;;;;28.95;12.05;;;26.40;62.40;;;;;;5002235;28;20381;-72
2022/03/22 16:53:10;;;;;;;22.50;9.93;;;26.40;62.50;;;;;;5005630;28;20447;-71
2022/03/22 16:55:37;;;;;;;19.05;8.10;;;26.40;62.60;;;;;;5005372;28;20022;-71
2022/03/22 16:58:07;;;;;;;14.45;5.88;;;26.40;62.60;;;;;;5021051;28;20336;-71
2022/03/22 17:00:34;;;;;;;20.42;5.63;;;26.30;62.50;;;;;;4999649;28;20030;-69
2022/03/22 17:03:00;;;;;;;18.35;5.93;;;26.30;62.60;;;;;;5004189;28;20033;-71
2022/03/22 17:05:27;;;;;;;15.60;4.97;;;26.20;62.60;;;;;;5006102;28;20038;-71
2022/03/22 17:07:55;;;;;;;15.13;4.00;;;26.20;62.70;;;;;;5005954;28;20289;-72
2022/03/22 17:10:21;;;;;;;13.88;4.88;;;26.20;62.70;;;;;;5007091;28;20096;-73
2022/03/22 17:12:48;;;;;;;15.38;4.55;;;26.20;62.90;;;;;;5007586;28;20076;-71
2022/03/22 17:15:15;;;;;;;15.73;5.13;;;26.20;63.00;;;;;;5006880;28;20034;-71
2022/03/22 17:17:41;;;;;;;13.23;3.47;;;26.10;62.90;;;;;;5002701;28;20041;-71
2022/03/22 17:20:09;;;;;;;16.48;5.47;;;26.10;63.00;;;;;;5004087;28;20071;-70
2022/03/22 17:23:15;;;;;;;16.75;4.45;;;26.10;63.10;;;;;;5010111;28;20586;-72
2022/03/22 17:25:46;;;;;;;22.23;5.13;;;26.10;63.20;;;;;;5004150;28;20017;-71
2022/03/22 17:28:15;;;;;;;13.68;4.55;;;26.00;63.20;;;;;;5005273;28;20014;-70
2022/03/22 17:30:42;;;;;;;14.00;4.10;;;26.00;63.30;;;;;;5003967;28;20014;-71
2022/03/22 17:33:09;;;;;;;22.60;7.15;;;26.00;63.30;;;;;;5007056;28;20100;-71
2022/03/22 17:35:36;;;;;;;29.17;15.15;;;26.00;63.40;;;;;;5002713;28;20605;-71
2022/03/22 17:38:02;;;;;;;25.35;12.73;;;25.90;63.50;;;;;;4996246;28;20425;-70
2022/03/22 17:40:29;;;;;;;21.75;7.53;;;26.00;63.70;;;;;;5006724;28;20044;-71
2022/03/22 17:42:55;;;;;;;16.02;5.97;;;25.90;63.50;;;;;;5008190;28;20104;-71
2022/03/22 17:45:22;;;;;;;18.77;5.47;;;25.90;63.80;;;;;;5008955;28;20112;-71
2022/03/22 17:47:48;;;;;;;17.45;5.63;;;25.90;63.70;;;;;;5006188;28;20095;-70
2022/03/22 17:50:18;;;;;;;24.63;5.68;;;25.90;63.70;;;;;;5005584;28;20013;-70
2022/03/22 17:52:47;;;;;;;12.05;4.13;;;25.90;63.80;;;;;;5005901;28;20018;-70
2022/03/22 17:55:14;;;;;;;16.92;4.57;;;26.00;64.00;;;;;;5002881;28;20038;-70
2022/03/22 17:57:42;;;;;;;18.27;4.40;;;26.00;64.00;;;;;;5009107;28;20069;-72
2022/03/22 18:00:48;;;;;;;16.30;4.85;;;25.90;64.00;;;;;;5003549;28;20022;-71
2022/03/22 18:03:32;;;;;;;14.50;5.90;;;25.90;64.00;;;;;;5001418;28;20029;-70
2022/03/22 18:05:58;;;;;;;15.77;5.05;;;25.90;63.90;;;;;;5012071;28;20089;-69
2022/03/22 18:08:25;;;;;;;22.15;4.72;;;25.90;63.90;;;;;;5006004;28;20024;-71
2022/03/22 18:11:41;;;;;;;28.15;8.52;;;25.90;63.70;;;;;;5002567;28;20693;-69
2022/03/22 18:13:39;;;;;;;26.10;11.88;;;25.90;63.60;;;;;;5003996;28;20484;-70
2022/03/22 18:16:07;;;;;;;32.67;13.20;;;25.90;63.60;;;;;;5003739;28;20465;-71
2022/03/22 18:18:33;;;;;;;25.80;9.32;;;25.90;63.60;;;;;;5006506;28;20216;-70
2022/03/22 18:21:00;;;;;;;22.77;8.75;;;25.90;63.60;;;;;;5005646;28;20059;-70
2022/03/22 18:23:26;;;;;;;15.90;4.90;;;25.90;63.50;;;;;;5004693;28;20413;-71
2022/03/22 18:25:53;;;;;;;23.90;5.80;;;25.90;63.50;;;;;;5004237;28;20091;-69
2022/03/22 18:28:20;;;;;;;22.33;5.60;;;25.80;63.40;;;;;;5004884;28;20033;-70